sensor_id;sensor_type;location;lat;lon;timestamp;pressure;altitude;pressure_sealevel;temperature
20103;BMP180;10210;52.284;9.892;2024-03-06T00:01:34;100811.00;;;9.20
20103;BMP180;10210;52.284;9.892;2024-03-06T00:04:03;100807.00;;;9.20
20103;BMP180;10210;52.284;9.892;2024-03-06T00:06:29;100808.00;;;9.20
20103;BMP180;10210;52.284;9.892;2024-03-06T00:08:56;100817.00;;;9.10
20103;BMP180;10210;52.284;9.892;2024-03-06T00:11:21;100811.00;;;9.10
20103;BMP180;10210;52.284;9.892;2024-03-06T00:13:47;100809.00;;;9.10
20103;BMP180;10210;52.284;9.892;2024-03-06T00:16:13;100813.00;;;9.10
20103;BMP180;10210;52.284;9.892;2024-03-06T00:18:39;100809.00;;;9.00
20103;BMP180;10210;52.284;9.892;2024-03-06T00:21:06;100810.00;;;9.00
20103;BMP180;10210;52.284;9.892;2024-03-06T00:23:32;100820.00;;;9.00
20103;BMP180;10210;52.284;9.892;2024-03-06T00:25:58;100819.00;;;9.00
20103;BMP180;10210;52.284;9.892;2024-03-06T00:28:24;100826.00;;;8.90
20103;BMP180;10210;52.284;9.892;2024-03-06T00:30:50;100819.00;;;8.90
20103;BMP180;10210;52.284;9.892;2024-03-06T00:33:15;100812.00;;;8.90
20103;BMP180;10210;52.284;9.892;2024-03-06T00:35:41;100818.00;;;8.90
20103;BMP180;10210;52.284;9.892;2024-03-06T00:38:08;100826.00;;;8.90
20103;BMP180;10210;52.284;9.892;2024-03-06T00:40:33;100819.00;;;8.90
20103;BMP180;10210;52.284;9.892;2024-03-06T00:42:59;100814.00;;;8.90
20103;BMP180;10210;52.284;9.892;2024-03-06T00:45:24;100827.00;;;8.90
20103;BMP180;10210;52.284;9.892;2024-03-06T00:47:50;100822.00;;;8.90
20103;BMP180;10210;52.284;9.892;2024-03-06T00:50:16;100833.00;;;8.90
20103;BMP180;10210;52.284;9.892;2024-03-06T00:52:45;100829.00;;;8.90
20103;BMP180;10210;52.284;9.892;2024-03-06T00:55:12;100834.00;;;8.90
20103;BMP180;10210;52.284;9.892;2024-03-06T00:57:38;100846.00;;;8.90
20103;BMP180;10210;52.284;9.892;2024-03-06T01:00:04;100850.00;;;8.90
20103;BMP180;10210;52.284;9.892;2024-03-06T01:02:39;100839.00;;;8.90
20103;BMP180;10210;52.284;9.892;2024-03-06T01:05:06;100836.00;;;8.90
20103;BMP180;10210;52.284;9.892;2024-03-06T01:07:37;100844.00;;;8.90
20103;BMP180;10210;52.284;9.892;2024-03-06T01:10:04;100837.00;;;8.90
20103;BMP180;10210;52.284;9.892;2024-03-06T01:12:33;100845.00;;;8.90
20103;BMP180;10210;52.284;9.892;2024-03-06T01:14:58;100838.00;;;8.90
20103;BMP180;10210;52.284;9.892;2024-03-06T01:17:24;100843.00;;;9.00
20103;BMP180;10210;52.284;9.892;2024-03-06T01:19:50;100856.00;;;9.00
20103;BMP180;10210;52.284;9.892;2024-03-06T01:22:17;100857.00;;;9.00
20103;BMP180;10210;52.284;9.892;2024-03-06T01:24:43;100856.00;;;9.00
20103;BMP180;10210;52.284;9.892;2024-03-06T01:27:09;100858.00;;;9.00
20103;BMP180;10210;52.284;9.892;2024-03-06T01:29:35;100856.00;;;8.90
20103;BMP180;10210;52.284;9.892;2024-03-06T01:32:02;100861.00;;;8.90
20103;BMP180;10210;52.284;9.892;2024-03-06T01:34:28;100861.00;;;8.90
20103;BMP180;10210;52.284;9.892;2024-03-06T01:36:55;100868.00;;;8.90
20103;BMP180;10210;52.284;9.892;2024-03-06T01:39:21;100874.00;;;8.90
20103;BMP180;10210;52.284;9.892;2024-03-06T01:41:49;100873.00;;;8.90
20103;BMP180;10210;52.284;9.892;2024-03-06T01:44:16;100877.00;;;8.90
20103;BMP180;10210;52.284;9.892;2024-03-06T01:46:43;100872.00;;;8.90
20103;BMP180;10210;52.284;9.892;2024-03-06T01:49:12;100871.00;;;8.90
20103;BMP180;10210;52.284;9.892;2024-03-06T01:51:40;100872.00;;;8.90
20103;BMP180;10210;52.284;9.892;2024-03-06T01:54:06;100880.00;;;8.90
20103;BMP180;10210;52.284;9.892;2024-03-06T01:56:39;100867.00;;;8.90
20103;BMP180;10210;52.284;9.892;2024-03-06T01:59:08;100878.00;;;8.90
20103;BMP180;10210;52.284;9.892;2024-03-06T02:01:33;100877.00;;;8.90
20103;BMP180;10210;52.284;9.892;2024-03-06T02:03:59;100874.00;;;8.90
20103;BMP180;10210;52.284;9.892;2024-03-06T02:06:25;100870.00;;;8.90
20103;BMP180;10210;52.284;9.892;2024-03-06T02:08:51;100882.00;;;8.90
20103;BMP180;10210;52.284;9.892;2024-03-06T02:11:17;100879.00;;;8.90
20103;BMP180;10210;52.284;9.892;2024-03-06T02:13:43;100880.00;;;8.90
20103;BMP180;10210;52.284;9.892;2024-03-06T02:16:10;100888.00;;;8.90
20103;BMP180;10210;52.284;9.892;2024-03-06T02:18:36;100887.00;;;8.90
20103;BMP180;10210;52.284;9.892;2024-03-06T02:21:03;100882.00;;;9.00
20103;BMP180;10210;52.284;9.892;2024-03-06T02:23:30;100890.00;;;9.00
20103;BMP180;10210;52.284;9.892;2024-03-06T02:25:56;100887.00;;;9.00
20103;BMP180;10210;52.284;9.892;2024-03-06T02:28:22;100891.00;;;9.00
20103;BMP180;10210;52.284;9.892;2024-03-06T02:30:51;100892.00;;;9.10
20103;BMP180;10210;52.284;9.892;2024-03-06T02:33:17;100897.00;;;9.10
20103;BMP180;10210;52.284;9.892;2024-03-06T02:35:43;100892.00;;;9.20
20103;BMP180;10210;52.284;9.892;2024-03-06T02:38:11;100903.00;;;9.30
20103;BMP180;10210;52.284;9.892;2024-03-06T02:40:37;100898.00;;;9.30
20103;BMP180;10210;52.284;9.892;2024-03-06T02:43:03;100893.00;;;9.30
20103;BMP180;10210;52.284;9.892;2024-03-06T02:45:30;100905.00;;;9.30
20103;BMP180;10210;52.284;9.892;2024-03-06T02:47:55;100909.00;;;9.40
20103;BMP180;10210;52.284;9.892;2024-03-06T02:50:21;100899.00;;;9.40
20103;BMP180;10210;52.284;9.892;2024-03-06T02:52:48;100893.00;;;9.40
20103;BMP180;10210;52.284;9.892;2024-03-06T02:55:15;100903.00;;;9.40
20103;BMP180;10210;52.284;9.892;2024-03-06T02:57:41;100892.00;;;9.40
20103;BMP180;10210;52.284;9.892;2024-03-06T03:00:07;100901.00;;;9.50
20103;BMP180;10210;52.284;9.892;2024-03-06T03:02:39;100906.00;;;9.50
20103;BMP180;10210;52.284;9.892;2024-03-06T03:05:05;100909.00;;;9.50
20103;BMP180;10210;52.284;9.892;2024-03-06T03:07:31;100907.00;;;9.50
20103;BMP180;10210;52.284;9.892;2024-03-06T03:09:57;100910.00;;;9.50
20103;BMP180;10210;52.284;9.892;2024-03-06T03:12:23;100910.00;;;9.50
20103;BMP180;10210;52.284;9.892;2024-03-06T03:14:48;100915.00;;;9.50
20103;BMP180;10210;52.284;9.892;2024-03-06T03:17:14;100905.00;;;9.50
20103;BMP180;10210;52.284;9.892;2024-03-06T03:19:40;100906.00;;;9.50
20103;BMP180;10210;52.284;9.892;2024-03-06T03:22:07;100915.00;;;9.50
20103;BMP180;10210;52.284;9.892;2024-03-06T03:24:34;100913.00;;;9.50
20103;BMP180;10210;52.284;9.892;2024-03-06T03:27:00;100931.00;;;9.50
20103;BMP180;10210;52.284;9.892;2024-03-06T03:29:26;100916.00;;;9.50
20103;BMP180;10210;52.284;9.892;2024-03-06T03:31:52;100916.00;;;9.50
20103;BMP180;10210;52.284;9.892;2024-03-06T03:34:18;100919.00;;;9.50
20103;BMP180;10210;52.284;9.892;2024-03-06T03:36:44;100924.00;;;9.50
20103;BMP180;10210;52.284;9.892;2024-03-06T03:39:12;100924.00;;;9.50
20103;BMP180;10210;52.284;9.892;2024-03-06T03:41:48;100927.00;;;9.50
20103;BMP180;10210;52.284;9.892;2024-03-06T03:44:17;100937.00;;;9.50
20103;BMP180;10210;52.284;9.892;2024-03-06T03:46:44;100933.00;;;9.50
20103;BMP180;10210;52.284;9.892;2024-03-06T03:49:11;100926.00;;;9.40
20103;BMP180;10210;52.284;9.892;2024-03-06T03:51:38;100924.00;;;9.40
20103;BMP180;10210;52.284;9.892;2024-03-06T03:54:05;100928.00;;;9.40
20103;BMP180;10210;52.284;9.892;2024-03-06T03:56:31;100926.00;;;9.40
20103;BMP180;10210;52.284;9.892;2024-03-06T03:58:57;100927.00;;;9.40
20103;BMP180;10210;52.284;9.892;2024-03-06T04:01:26;100936.00;;;9.40
20103;BMP180;10210;52.284;9.892;2024-03-06T04:03:52;100935.00;;;9.40
20103;BMP180;10210;52.284;9.892;2024-03-06T04:06:18;100931.00;;;9.40
20103;BMP180;10210;52.284;9.892;2024-03-06T04:08:44;100933.00;;;9.30
20103;BMP180;10210;52.284;9.892;2024-03-06T04:11:11;100936.00;;;9.30
20103;BMP180;10210;52.284;9.892;2024-03-06T04:13:38;100943.00;;;9.30
20103;BMP180;10210;52.284;9.892;2024-03-06T04:16:05;100943.00;;;9.30
20103;BMP180;10210;52.284;9.892;2024-03-06T04:18:32;100937.00;;;9.30
20103;BMP180;10210;52.284;9.892;2024-03-06T04:21:03;100943.00;;;9.30
20103;BMP180;10210;52.284;9.892;2024-03-06T04:23:29;100944.00;;;9.30
20103;BMP180;10210;52.284;9.892;2024-03-06T04:25:55;100943.00;;;9.30
20103;BMP180;10210;52.284;9.892;2024-03-06T04:28:21;100943.00;;;9.30
20103;BMP180;10210;52.284;9.892;2024-03-06T04:30:47;100945.00;;;9.30
20103;BMP180;10210;52.284;9.892;2024-03-06T04:33:12;100955.00;;;9.30
20103;BMP180;10210;52.284;9.892;2024-03-06T04:35:41;100957.00;;;9.30
20103;BMP180;10210;52.284;9.892;2024-03-06T04:38:07;100945.00;;;9.30
20103;BMP180;10210;52.284;9.892;2024-03-06T04:40:34;100953.00;;;9.30
20103;BMP180;10210;52.284;9.892;2024-03-06T04:43:03;100963.00;;;9.20
20103;BMP180;10210;52.284;9.892;2024-03-06T04:45:29;100966.00;;;9.20
20103;BMP180;10210;52.284;9.892;2024-03-06T04:47:55;100973.00;;;9.20
20103;BMP180;10210;52.284;9.892;2024-03-06T04:50:21;100982.00;;;9.10
20103;BMP180;10210;52.284;9.892;2024-03-06T04:52:47;100974.00;;;9.10
20103;BMP180;10210;52.284;9.892;2024-03-06T04:55:13;100974.00;;;9.10
20103;BMP180;10210;52.284;9.892;2024-03-06T04:57:43;100984.00;;;9.10
20103;BMP180;10210;52.284;9.892;2024-03-06T05:00:10;100990.00;;;9.10
20103;BMP180;10210;52.284;9.892;2024-03-06T05:02:37;100991.00;;;9.10
20103;BMP180;10210;52.284;9.892;2024-03-06T05:05:04;100987.00;;;9.10
20103;BMP180;10210;52.284;9.892;2024-03-06T05:07:31;100998.00;;;9.10
20103;BMP180;10210;52.284;9.892;2024-03-06T05:09:58;100995.00;;;9.10
20103;BMP180;10210;52.284;9.892;2024-03-06T05:12:25;100993.00;;;9.10
20103;BMP180;10210;52.284;9.892;2024-03-06T05:14:52;100998.00;;;9.10
20103;BMP180;10210;52.284;9.892;2024-03-06T05:17:18;101004.00;;;9.10
20103;BMP180;10210;52.284;9.892;2024-03-06T05:19:48;101001.00;;;9.10
20103;BMP180;10210;52.284;9.892;2024-03-06T05:22:16;101002.00;;;9.10
20103;BMP180;10210;52.284;9.892;2024-03-06T05:24:42;100999.00;;;9.10
20103;BMP180;10210;52.284;9.892;2024-03-06T05:27:10;100991.00;;;9.10
20103;BMP180;10210;52.284;9.892;2024-03-06T05:29:39;100990.00;;;9.00
20103;BMP180;10210;52.284;9.892;2024-03-06T05:32:05;100995.00;;;9.00
20103;BMP180;10210;52.284;9.892;2024-03-06T05:34:33;101000.00;;;9.00
20103;BMP180;10210;52.284;9.892;2024-03-06T05:36:59;101000.00;;;9.00
20103;BMP180;10210;52.284;9.892;2024-03-06T05:39:27;101009.00;;;9.10
20103;BMP180;10210;52.284;9.892;2024-03-06T05:42:00;101014.00;;;9.10
20103;BMP180;10210;52.284;9.892;2024-03-06T05:44:28;101020.00;;;9.10
20103;BMP180;10210;52.284;9.892;2024-03-06T05:46:54;101026.00;;;9.10
20103;BMP180;10210;52.284;9.892;2024-03-06T05:49:20;101024.00;;;9.10
20103;BMP180;10210;52.284;9.892;2024-03-06T05:51:45;101026.00;;;9.10
20103;BMP180;10210;52.284;9.892;2024-03-06T05:54:12;101033.00;;;9.10
20103;BMP180;10210;52.284;9.892;2024-03-06T05:56:38;101031.00;;;9.20
20103;BMP180;10210;52.284;9.892;2024-03-06T05:59:04;101035.00;;;9.20
20103;BMP180;10210;52.284;9.892;2024-03-06T06:01:36;101039.00;;;9.20
20103;BMP180;10210;52.284;9.892;2024-03-06T06:04:02;101029.00;;;9.20
20103;BMP180;10210;52.284;9.892;2024-03-06T06:06:27;101037.00;;;9.20
20103;BMP180;10210;52.284;9.892;2024-03-06T06:08:53;101043.00;;;9.20
20103;BMP180;10210;52.284;9.892;2024-03-06T06:11:19;101034.00;;;9.20
20103;BMP180;10210;52.284;9.892;2024-03-06T06:13:45;101047.00;;;9.20
20103;BMP180;10210;52.284;9.892;2024-03-06T06:16:11;101055.00;;;9.20
20103;BMP180;10210;52.284;9.892;2024-03-06T06:18:37;101042.00;;;9.20
20103;BMP180;10210;52.284;9.892;2024-03-06T06:21:03;101054.00;;;9.10
20103;BMP180;10210;52.284;9.892;2024-03-06T06:23:32;101054.00;;;9.10
20103;BMP180;10210;52.284;9.892;2024-03-06T06:25:58;101057.00;;;9.20
20103;BMP180;10210;52.284;9.892;2024-03-06T06:28:24;101068.00;;;9.20
20103;BMP180;10210;52.284;9.892;2024-03-06T06:30:50;101061.00;;;9.20
20103;BMP180;10210;52.284;9.892;2024-03-06T06:33:20;101071.00;;;9.20
20103;BMP180;10210;52.284;9.892;2024-03-06T06:35:47;101069.00;;;9.20
20103;BMP180;10210;52.284;9.892;2024-03-06T06:38:13;101060.00;;;9.20
20103;BMP180;10210;52.284;9.892;2024-03-06T06:40:39;101083.00;;;9.30
20103;BMP180;10210;52.284;9.892;2024-03-06T06:43:06;101076.00;;;9.30
20103;BMP180;10210;52.284;9.892;2024-03-06T06:45:33;101081.00;;;9.30
20103;BMP180;10210;52.284;9.892;2024-03-06T06:47:58;101082.00;;;9.30
20103;BMP180;10210;52.284;9.892;2024-03-06T06:50:24;101094.00;;;9.30
20103;BMP180;10210;52.284;9.892;2024-03-06T06:52:52;101089.00;;;9.30
20103;BMP180;10210;52.284;9.892;2024-03-06T06:55:18;101102.00;;;9.30
20103;BMP180;10210;52.284;9.892;2024-03-06T06:57:46;101100.00;;;9.30
20103;BMP180;10210;52.284;9.892;2024-03-06T07:00:12;101110.00;;;9.30
20103;BMP180;10210;52.284;9.892;2024-03-06T07:02:38;101124.00;;;9.30
20103;BMP180;10210;52.284;9.892;2024-03-06T07:05:05;101117.00;;;9.30
20103;BMP180;10210;52.284;9.892;2024-03-06T07:07:31;101126.00;;;9.30
20103;BMP180;10210;52.284;9.892;2024-03-06T07:09:57;101117.00;;;9.30
20103;BMP180;10210;52.284;9.892;2024-03-06T07:12:23;101121.00;;;9.30
20103;BMP180;10210;52.284;9.892;2024-03-06T07:14:49;101122.00;;;9.30
20103;BMP180;10210;52.284;9.892;2024-03-06T07:17:16;101136.00;;;9.20
20103;BMP180;10210;52.284;9.892;2024-03-06T07:19:41;101135.00;;;9.20
20103;BMP180;10210;52.284;9.892;2024-03-06T07:22:07;101132.00;;;9.20
20103;BMP180;10210;52.284;9.892;2024-03-06T07:24:33;101139.00;;;9.20
20103;BMP180;10210;52.284;9.892;2024-03-06T07:26:59;101139.00;;;9.20
20103;BMP180;10210;52.284;9.892;2024-03-06T07:29:27;101135.00;;;9.20
20103;BMP180;10210;52.284;9.892;2024-03-06T07:31:52;101141.00;;;9.20
20103;BMP180;10210;52.284;9.892;2024-03-06T07:34:20;101146.00;;;9.30
20103;BMP180;10210;52.284;9.892;2024-03-06T07:36:49;101151.00;;;9.30
20103;BMP180;10210;52.284;9.892;2024-03-06T07:39:21;101152.00;;;9.30
20103;BMP180;10210;52.284;9.892;2024-03-06T07:41:47;101161.00;;;9.30
20103;BMP180;10210;52.284;9.892;2024-03-06T07:44:14;101165.00;;;9.40
20103;BMP180;10210;52.284;9.892;2024-03-06T07:46:40;101167.00;;;9.40
20103;BMP180;10210;52.284;9.892;2024-03-06T07:49:05;101166.00;;;9.40
20103;BMP180;10210;52.284;9.892;2024-03-06T07:51:32;101170.00;;;9.40
20103;BMP180;10210;52.284;9.892;2024-03-06T07:53:58;101167.00;;;9.50
20103;BMP180;10210;52.284;9.892;2024-03-06T07:56:26;101175.00;;;9.50
20103;BMP180;10210;52.284;9.892;2024-03-06T07:58:52;101182.00;;;9.50
20103;BMP180;10210;52.284;9.892;2024-03-06T08:01:19;101192.00;;;9.50
20103;BMP180;10210;52.284;9.892;2024-03-06T08:03:46;101184.00;;;9.50
20103;BMP180;10210;52.284;9.892;2024-03-06T08:06:12;101192.00;;;9.50
20103;BMP180;10210;52.284;9.892;2024-03-06T08:08:45;101194.00;;;9.50
20103;BMP180;10210;52.284;9.892;2024-03-06T08:11:11;101196.00;;;9.50
20103;BMP180;10210;52.284;9.892;2024-03-06T08:13:38;101188.00;;;9.50
20103;BMP180;10210;52.284;9.892;2024-03-06T08:16:05;101208.00;;;9.40
20103;BMP180;10210;52.284;9.892;2024-03-06T08:18:33;101203.00;;;9.40
20103;BMP180;10210;52.284;9.892;2024-03-06T08:20:59;101214.00;;;9.40
20103;BMP180;10210;52.284;9.892;2024-03-06T08:23:25;101209.00;;;9.40
20103;BMP180;10210;52.284;9.892;2024-03-06T08:25:51;101216.00;;;9.40
20103;BMP180;10210;52.284;9.892;2024-03-06T08:28:18;101217.00;;;9.40
20103;BMP180;10210;52.284;9.892;2024-03-06T08:30:44;101214.00;;;9.50
20103;BMP180;10210;52.284;9.892;2024-03-06T08:33:10;101219.00;;;9.50
20103;BMP180;10210;52.284;9.892;2024-03-06T08:35:36;101226.00;;;9.50
20103;BMP180;10210;52.284;9.892;2024-03-06T08:38:01;101234.00;;;9.50
20103;BMP180;10210;52.284;9.892;2024-03-06T08:40:27;101227.00;;;9.50
20103;BMP180;10210;52.284;9.892;2024-03-06T08:42:54;101240.00;;;9.60
20103;BMP180;10210;52.284;9.892;2024-03-06T08:45:20;101247.00;;;9.60
20103;BMP180;10210;52.284;9.892;2024-03-06T08:47:46;101239.00;;;9.60
20103;BMP180;10210;52.284;9.892;2024-03-06T08:50:16;101245.00;;;9.60
20103;BMP180;10210;52.284;9.892;2024-03-06T08:52:42;101247.00;;;9.70
20103;BMP180;10210;52.284;9.892;2024-03-06T08:55:08;101250.00;;;9.70
20103;BMP180;10210;52.284;9.892;2024-03-06T08:57:38;101253.00;;;9.70
20103;BMP180;10210;52.284;9.892;2024-03-06T09:00:06;101258.00;;;9.70
20103;BMP180;10210;52.284;9.892;2024-03-06T09:02:37;101251.00;;;9.70
20103;BMP180;10210;52.284;9.892;2024-03-06T09:05:10;101256.00;;;9.70
20103;BMP180;10210;52.284;9.892;2024-03-06T09:07:36;101257.00;;;9.70
20103;BMP180;10210;52.284;9.892;2024-03-06T09:10:10;101265.00;;;9.70
20103;BMP180;10210;52.284;9.892;2024-03-06T09:12:36;101253.00;;;9.80
20103;BMP180;10210;52.284;9.892;2024-03-06T09:15:03;101263.00;;;9.80
20103;BMP180;10210;52.284;9.892;2024-03-06T09:17:31;101260.00;;;9.80
20103;BMP180;10210;52.284;9.892;2024-03-06T09:19:56;101268.00;;;9.80
20103;BMP180;10210;52.284;9.892;2024-03-06T09:22:22;101270.00;;;9.80
20103;BMP180;10210;52.284;9.892;2024-03-06T09:24:48;101274.00;;;9.70
20103;BMP180;10210;52.284;9.892;2024-03-06T09:27:17;101270.00;;;9.70
20103;BMP180;10210;52.284;9.892;2024-03-06T09:29:43;101276.00;;;9.70
20103;BMP180;10210;52.284;9.892;2024-03-06T09:32:09;101285.00;;;9.80
20103;BMP180;10210;52.284;9.892;2024-03-06T09:34:35;101278.00;;;9.80
20103;BMP180;10210;52.284;9.892;2024-03-06T09:37:01;101289.00;;;9.80
20103;BMP180;10210;52.284;9.892;2024-03-06T09:39:29;101280.00;;;9.80
20103;BMP180;10210;52.284;9.892;2024-03-06T09:41:55;101290.00;;;9.80
20103;BMP180;10210;52.284;9.892;2024-03-06T09:44:22;101291.00;;;9.80
20103;BMP180;10210;52.284;9.892;2024-03-06T09:46:49;101290.00;;;9.80
20103;BMP180;10210;52.284;9.892;2024-03-06T09:49:19;101297.00;;;9.90
20103;BMP180;10210;52.284;9.892;2024-03-06T09:51:47;101296.00;;;9.90
20103;BMP180;10210;52.284;9.892;2024-03-06T09:54:16;101297.00;;;9.90
20103;BMP180;10210;52.284;9.892;2024-03-06T09:56:47;101296.00;;;9.90
20103;BMP180;10210;52.284;9.892;2024-03-06T09:59:13;101302.00;;;10.00
20103;BMP180;10210;52.284;9.892;2024-03-06T10:01:50;101301.00;;;10.00
20103;BMP180;10210;52.284;9.892;2024-03-06T10:04:26;101314.00;;;10.00
20103;BMP180;10210;52.284;9.892;2024-03-06T10:06:57;101304.00;;;10.10
20103;BMP180;10210;52.284;9.892;2024-03-06T10:09:24;101305.00;;;10.10
20103;BMP180;10210;52.284;9.892;2024-03-06T10:11:51;101297.00;;;10.20
20103;BMP180;10210;52.284;9.892;2024-03-06T10:14:21;101308.00;;;10.20
20103;BMP180;10210;52.284;9.892;2024-03-06T10:16:57;101316.00;;;10.30
20103;BMP180;10210;52.284;9.892;2024-03-06T10:19:26;101308.00;;;10.30
20103;BMP180;10210;52.284;9.892;2024-03-06T10:21:53;101317.00;;;10.40
20103;BMP180;10210;52.284;9.892;2024-03-06T10:24:25;101311.00;;;10.40
20103;BMP180;10210;52.284;9.892;2024-03-06T10:26:52;101310.00;;;10.50
20103;BMP180;10210;52.284;9.892;2024-03-06T10:29:21;101314.00;;;10.50
20103;BMP180;10210;52.284;9.892;2024-03-06T10:31:56;101322.00;;;10.60
20103;BMP180;10210;52.284;9.892;2024-03-06T10:34:27;101318.00;;;10.60
20103;BMP180;10210;52.284;9.892;2024-03-06T10:36:59;101328.00;;;10.70
20103;BMP180;10210;52.284;9.892;2024-03-06T10:39:25;101324.00;;;10.70
20103;BMP180;10210;52.284;9.892;2024-03-06T10:41:56;101333.00;;;10.80
20103;BMP180;10210;52.284;9.892;2024-03-06T10:44:26;101328.00;;;10.80
20103;BMP180;10210;52.284;9.892;2024-03-06T10:47:05;101331.00;;;10.90
20103;BMP180;10210;52.284;9.892;2024-03-06T10:49:32;101336.00;;;10.90
20103;BMP180;10210;52.284;9.892;2024-03-06T10:52:06;101340.00;;;11.00
20103;BMP180;10210;52.284;9.892;2024-03-06T10:54:33;101335.00;;;11.00
20103;BMP180;10210;52.284;9.892;2024-03-06T10:57:01;101335.00;;;11.00
20103;BMP180;10210;52.284;9.892;2024-03-06T10:59:29;101330.00;;;11.10
20103;BMP180;10210;52.284;9.892;2024-03-06T11:01:59;101332.00;;;11.10
20103;BMP180;10210;52.284;9.892;2024-03-06T11:04:31;101336.00;;;11.20
20103;BMP180;10210;52.284;9.892;2024-03-06T11:07:03;101335.00;;;11.20
20103;BMP180;10210;52.284;9.892;2024-03-06T11:09:37;101343.00;;;11.30
20103;BMP180;10210;52.284;9.892;2024-03-06T11:12:05;101338.00;;;11.30
20103;BMP180;10210;52.284;9.892;2024-03-06T11:14:39;101340.00;;;11.40
20103;BMP180;10210;52.284;9.892;2024-03-06T11:17:08;101347.00;;;11.40
20103;BMP180;10210;52.284;9.892;2024-03-06T11:28:33;101356.00;;;11.50
20103;BMP180;10210;52.284;9.892;2024-03-06T11:31:05;101345.00;;;11.60
20103;BMP180;10210;52.284;9.892;2024-03-06T11:33:36;101359.00;;;11.60
20103;BMP180;10210;52.284;9.892;2024-03-06T11:36:19;101356.00;;;11.60
20103;BMP180;10210;52.284;9.892;2024-03-06T11:39:01;101358.00;;;11.70
20103;BMP180;10210;52.284;9.892;2024-03-06T11:44:02;101358.00;;;11.80
20103;BMP180;10210;52.284;9.892;2024-03-06T11:46:47;101356.00;;;11.80
20103;BMP180;10210;52.284;9.892;2024-03-06T11:49:25;101357.00;;;11.80
20103;BMP180;10210;52.284;9.892;2024-03-06T11:51:53;101364.00;;;11.80
20103;BMP180;10210;52.284;9.892;2024-03-06T11:54:19;101350.00;;;11.80
20103;BMP180;10210;52.284;9.892;2024-03-06T11:56:50;101350.00;;;11.90
20103;BMP180;10210;52.284;9.892;2024-03-06T11:59:24;101360.00;;;11.90
20103;BMP180;10210;52.284;9.892;2024-03-06T12:01:51;101357.00;;;11.90
20103;BMP180;10210;52.284;9.892;2024-03-06T12:04:19;101359.00;;;11.90
20103;BMP180;10210;52.284;9.892;2024-03-06T12:06:46;101350.00;;;11.90
20103;BMP180;10210;52.284;9.892;2024-03-06T12:09:12;101365.00;;;11.90
20103;BMP180;10210;52.284;9.892;2024-03-06T12:11:38;101360.00;;;11.90
20103;BMP180;10210;52.284;9.892;2024-03-06T12:14:04;101359.00;;;11.90
20103;BMP180;10210;52.284;9.892;2024-03-06T12:16:30;101359.00;;;11.90
20103;BMP180;10210;52.284;9.892;2024-03-06T12:18:57;101368.00;;;12.00
20103;BMP180;10210;52.284;9.892;2024-03-06T12:21:30;101355.00;;;12.00
20103;BMP180;10210;52.284;9.892;2024-03-06T12:24:07;101364.00;;;12.00
20103;BMP180;10210;52.284;9.892;2024-03-06T12:26:33;101365.00;;;12.00
20103;BMP180;10210;52.284;9.892;2024-03-06T12:29:07;101364.00;;;12.00
20103;BMP180;10210;52.284;9.892;2024-03-06T12:31:35;101363.00;;;12.00
20103;BMP180;10210;52.284;9.892;2024-03-06T12:34:02;101366.00;;;12.00
20103;BMP180;10210;52.284;9.892;2024-03-06T12:36:29;101371.00;;;12.00
20103;BMP180;10210;52.284;9.892;2024-03-06T12:39:04;101368.00;;;12.00
20103;BMP180;10210;52.284;9.892;2024-03-06T12:41:39;101361.00;;;12.00
20103;BMP180;10210;52.284;9.892;2024-03-06T12:44:05;101357.00;;;12.00
20103;BMP180;10210;52.284;9.892;2024-03-06T12:46:32;101359.00;;;12.00
20103;BMP180;10210;52.284;9.892;2024-03-06T12:48:58;101357.00;;;12.10
20103;BMP180;10210;52.284;9.892;2024-03-06T12:51:24;101360.00;;;12.20
20103;BMP180;10210;52.284;9.892;2024-03-06T12:53:49;101363.00;;;12.20
20103;BMP180;10210;52.284;9.892;2024-03-06T12:56:17;101357.00;;;12.30
20103;BMP180;10210;52.284;9.892;2024-03-06T12:58:43;101360.00;;;12.40
20103;BMP180;10210;52.284;9.892;2024-03-06T13:01:09;101358.00;;;12.40
20103;BMP180;10210;52.284;9.892;2024-03-06T13:03:36;101350.00;;;12.40
20103;BMP180;10210;52.284;9.892;2024-03-06T13:06:02;101348.00;;;12.50
20103;BMP180;10210;52.284;9.892;2024-03-06T13:08:30;101349.00;;;12.60
20103;BMP180;10210;52.284;9.892;2024-03-06T13:10:56;101358.00;;;12.60
20103;BMP180;10210;52.284;9.892;2024-03-06T13:13:22;101362.00;;;12.70
20103;BMP180;10210;52.284;9.892;2024-03-06T13:15:52;101350.00;;;12.70
20103;BMP180;10210;52.284;9.892;2024-03-06T13:18:18;101349.00;;;12.70
20103;BMP180;10210;52.284;9.892;2024-03-06T13:20:44;101349.00;;;12.70
20103;BMP180;10210;52.284;9.892;2024-03-06T13:23:11;101358.00;;;12.60
20103;BMP180;10210;52.284;9.892;2024-03-06T13:25:37;101348.00;;;12.60
20103;BMP180;10210;52.284;9.892;2024-03-06T13:28:03;101356.00;;;12.70
20103;BMP180;10210;52.284;9.892;2024-03-06T13:30:30;101361.00;;;12.70
20103;BMP180;10210;52.284;9.892;2024-03-06T13:32:57;101363.00;;;12.80
20103;BMP180;10210;52.284;9.892;2024-03-06T13:35:23;101364.00;;;12.80
20103;BMP180;10210;52.284;9.892;2024-03-06T13:37:48;101365.00;;;12.80
20103;BMP180;10210;52.284;9.892;2024-03-06T13:40:17;101357.00;;;12.90
20103;BMP180;10210;52.284;9.892;2024-03-06T13:42:43;101361.00;;;13.00
20103;BMP180;10210;52.284;9.892;2024-03-06T13:45:09;101368.00;;;13.00
20103;BMP180;10210;52.284;9.892;2024-03-06T13:47:41;101364.00;;;13.10
20103;BMP180;10210;52.284;9.892;2024-03-06T13:50:09;101372.00;;;13.20
20103;BMP180;10210;52.284;9.892;2024-03-06T13:52:36;101365.00;;;13.20
20103;BMP180;10210;52.284;9.892;2024-03-06T13:55:01;101359.00;;;13.30
20103;BMP180;10210;52.284;9.892;2024-03-06T13:57:32;101363.00;;;13.40
20103;BMP180;10210;52.284;9.892;2024-03-06T14:00:09;101364.00;;;13.40
20103;BMP180;10210;52.284;9.892;2024-03-06T14:02:43;101359.00;;;13.60
20103;BMP180;10210;52.284;9.892;2024-03-06T14:05:11;101362.00;;;13.60
20103;BMP180;10210;52.284;9.892;2024-03-06T14:07:38;101356.00;;;13.70
20103;BMP180;10210;52.284;9.892;2024-03-06T14:10:05;101370.00;;;13.70
20103;BMP180;10210;52.284;9.892;2024-03-06T14:12:33;101355.00;;;13.80
20103;BMP180;10210;52.284;9.892;2024-03-06T14:14:58;101350.00;;;13.90
20103;BMP180;10210;52.284;9.892;2024-03-06T14:17:25;101370.00;;;13.90